createdAt,value
2019-03-01T00:01:02.821Z,9.63
2019-03-01T00:03:57.080Z,9.20
2019-03-01T00:06:50.584Z,7.57
2019-03-01T00:09:58.756Z,8.67
2019-03-01T00:12:55.552Z,6.40
2019-03-01T00:16:14.038Z,10.00
2019-03-01T00:19:37.985Z,4.70
2019-03-01T00:22:28.981Z,7.10
2019-03-01T00:25:22.674Z,7.70
2019-03-01T00:28:22.704Z,9.97
2019-03-01T00:31:37.328Z,7.03
2019-03-01T00:34:37.365Z,3.73
2019-03-01T00:37:53.976Z,5.03
2019-03-01T00:41:01.475Z,6.33
2019-03-01T00:44:04.793Z,5.87
2019-03-01T00:46:52.401Z,7.73
2019-03-01T00:49:40.400Z,5.57
2019-03-01T00:52:27.954Z,5.77
2019-03-01T00:55:15.737Z,5.00
2019-03-01T00:58:03.308Z,4.70
2019-03-01T01:00:51.319Z,7.07
2019-03-01T01:03:39.256Z,3.83
2019-03-01T01:06:26.950Z,4.37
2019-03-01T01:09:14.793Z,10.23
2019-03-01T01:12:02.664Z,3.93
2019-03-01T01:14:50.625Z,6.60
2019-03-01T01:17:38.618Z,3.60
2019-03-01T01:20:26.521Z,3.07
2019-03-01T01:23:14.377Z,4.07
2019-03-01T01:26:02.145Z,2.40
2019-03-01T01:28:50.133Z,2.30
2019-03-01T01:31:37.932Z,4.30
2019-03-01T01:34:25.804Z,3.20
2019-03-01T01:37:13.440Z,4.20
2019-03-01T01:40:01.520Z,4.40
2019-03-01T01:42:49.187Z,1.73
2019-03-01T01:45:37.021Z,2.80
2019-03-01T01:48:24.944Z,4.90
2019-03-01T01:51:12.954Z,4.60
2019-03-01T01:54:00.756Z,7.43
2019-03-01T01:56:48.756Z,3.67
2019-03-01T01:59:36.529Z,2.00
2019-03-01T02:02:24.082Z,3.43
2019-03-01T02:05:12.053Z,3.67
2019-03-01T02:07:59.808Z,5.70
2019-03-01T02:10:47.793Z,5.10
2019-03-01T02:13:35.649Z,7.00
2019-03-01T02:16:23.247Z,5.30
2019-03-01T02:19:11.076Z,3.63
2019-03-01T02:21:59.142Z,4.50
2019-03-01T02:24:46.930Z,4.50
2019-03-01T02:27:34.853Z,4.40
2019-03-01T02:30:34.953Z,6.20
2019-03-01T02:33:22.906Z,5.60
2019-03-01T02:36:10.617Z,3.67
2019-03-01T02:38:58.446Z,5.80
2019-03-01T02:41:46.545Z,3.03
2019-03-01T02:44:34.205Z,3.37
2019-03-01T02:47:21.901Z,3.80
2019-03-01T02:50:12.538Z,2.23
2019-03-01T02:53:00.401Z,5.00
2019-03-01T02:55:48.458Z,4.50
2019-03-01T02:58:36.013Z,2.03
2019-03-01T03:01:23.786Z,2.73
2019-03-01T03:04:11.684Z,3.33
2019-03-01T03:07:01.188Z,4.33
2019-03-01T03:09:49.126Z,4.70
2019-03-01T03:12:37.012Z,5.83
2019-03-01T03:15:29.657Z,5.70
2019-03-01T03:18:18.093Z,4.03
2019-03-01T03:21:06.224Z,3.90
2019-03-01T03:23:54.130Z,4.37
2019-03-01T03:26:41.987Z,4.33
2019-03-01T03:29:29.684Z,3.87
2019-03-01T03:32:17.955Z,5.73
2019-03-01T03:35:06.514Z,3.00
2019-03-01T03:37:54.344Z,4.03
2019-03-01T03:40:42.230Z,4.07
2019-03-01T03:43:29.977Z,4.60
2019-03-01T03:46:17.626Z,4.23
2019-03-01T03:49:04.993Z,3.60
2019-03-01T03:51:52.658Z,3.63
2019-03-01T03:54:40.738Z,4.30
2019-03-01T03:57:28.201Z,6.03
2019-03-01T04:00:23.446Z,3.60
2019-03-01T04:03:10.926Z,3.57
2019-03-01T04:05:58.663Z,5.03
2019-03-01T04:08:46.427Z,3.00
2019-03-01T04:11:34.199Z,5.90
2019-03-01T04:14:22.099Z,5.83
2019-03-01T04:17:10.045Z,3.83
2019-03-01T04:19:57.953Z,3.87
2019-03-01T04:22:45.849Z,4.03
2019-03-01T04:25:33.663Z,5.50
2019-03-01T04:28:21.497Z,3.10
2019-03-01T04:31:09.517Z,3.60
2019-03-01T04:33:57.220Z,4.13
2019-03-01T04:36:45.091Z,7.53
2019-03-01T04:39:32.691Z,4.67
2019-03-01T04:42:20.850Z,24.30
2019-03-01T04:45:13.732Z,22.30
2019-03-01T04:48:01.238Z,12.50
2019-03-01T04:50:49.028Z,4.33
2019-03-01T04:53:36.937Z,4.73
2019-03-01T04:56:24.859Z,3.90
2019-03-01T04:59:12.452Z,3.97
2019-03-01T05:02:00.064Z,8.13
2019-03-01T05:04:47.950Z,3.57
2019-03-01T05:07:36.182Z,2.87
2019-03-01T05:10:24.017Z,1.80
2019-03-01T05:13:11.849Z,2.87
2019-03-01T05:15:59.796Z,1.83
2019-03-01T05:18:47.629Z,1.87
2019-03-01T05:21:35.505Z,2.80
2019-03-01T05:24:23.499Z,3.37
2019-03-01T05:27:11.432Z,2.20
2019-03-01T05:29:59.323Z,1.80
2019-03-01T05:32:46.897Z,2.37
2019-03-01T05:35:34.557Z,2.67
2019-03-01T05:38:22.310Z,1.20
2019-03-01T05:41:10.177Z,2.27
2019-03-01T05:43:57.955Z,1.10
2019-03-01T05:46:45.848Z,1.77
2019-03-01T05:49:33.837Z,2.37
2019-03-01T05:52:21.588Z,1.40
2019-03-01T05:55:10.677Z,1.90
2019-03-01T05:58:18.484Z,2.10
2019-03-01T06:01:15.498Z,2.03
2019-03-01T06:04:12.221Z,1.10
2019-03-01T06:07:08.753Z,3.93
2019-03-01T06:10:02.207Z,3.30
2019-03-01T06:13:12.763Z,2.07
2019-03-01T06:16:15.500Z,1.33
2019-03-01T06:19:18.790Z,2.47
2019-03-01T06:22:26.249Z,2.47
2019-03-01T06:25:20.060Z,1.63
2019-03-01T06:28:32.221Z,1.60
2019-03-01T06:31:39.064Z,2.30
2019-03-01T06:34:35.997Z,2.57
2019-03-01T06:37:39.062Z,1.80
2019-03-01T06:40:46.381Z,2.10
2019-03-01T06:43:40.286Z,2.83
2019-03-01T06:46:33.736Z,2.13
2019-03-01T06:49:23.214Z,2.30
2019-03-01T06:52:10.977Z,3.63
2019-03-01T06:54:58.700Z,4.00
2019-03-01T06:57:46.860Z,2.30
2019-03-01T07:00:36.145Z,1.83
2019-03-01T07:03:23.984Z,2.60
2019-03-01T07:06:14.923Z,2.73
2019-03-01T07:09:02.789Z,2.47
2019-03-01T07:11:50.785Z,3.70
2019-03-01T07:14:38.516Z,2.50
2019-03-01T07:17:26.112Z,3.70
2019-03-01T07:20:13.700Z,2.03
2019-03-01T07:23:01.510Z,4.10
2019-03-01T07:25:49.325Z,2.40
2019-03-01T07:28:37.189Z,1.93
2019-03-01T07:31:25.032Z,5.17
2019-03-01T07:34:12.985Z,3.30
2019-03-01T07:37:00.851Z,1.80
2019-03-01T07:39:48.843Z,3.27
2019-03-01T07:42:36.392Z,3.03
2019-03-01T07:45:24.380Z,1.80
2019-03-01T07:48:12.571Z,3.97
2019-03-01T07:51:02.339Z,4.10
2019-03-01T07:53:50.588Z,2.70
2019-03-01T07:56:39.922Z,2.27
2019-03-01T07:59:33.442Z,2.30
2019-03-01T08:02:19.377Z,2.83
2019-03-01T08:05:16.423Z,2.30
2019-03-01T08:08:05.057Z,1.40
2019-03-01T08:10:57.415Z,3.60
2019-03-01T08:13:49.457Z,2.80
2019-03-01T08:16:40.866Z,1.10
2019-03-01T08:19:29.659Z,1.53
2019-03-01T08:22:20.880Z,2.00
2019-03-01T08:25:13.067Z,1.53
2019-03-01T08:28:01.283Z,1.80
2019-03-01T08:30:49.415Z,1.57
2019-03-01T08:33:42.341Z,1.33
2019-03-01T08:36:27.313Z,2.03
2019-03-01T08:39:18.142Z,1.47
2019-03-01T08:42:07.341Z,1.63
2019-03-01T08:44:58.183Z,1.47
2019-03-01T08:47:45.550Z,1.73
2019-03-01T08:50:33.456Z,1.00
2019-03-01T08:53:21.515Z,1.23
2019-03-01T08:56:11.049Z,1.80
2019-03-01T08:58:58.524Z,2.50
2019-03-01T09:01:46.500Z,1.20
2019-03-01T09:04:38.209Z,1.60
2019-03-01T09:07:27.218Z,1.50
2019-03-01T09:10:17.477Z,0.83
2019-03-01T09:13:05.371Z,1.03
2019-03-01T09:15:52.994Z,2.33
2019-03-01T09:18:41.046Z,1.17
2019-03-01T09:21:29.064Z,1.00
2019-03-01T09:24:16.572Z,1.03
2019-03-01T09:27:04.157Z,1.20
2019-03-01T09:29:51.852Z,2.57
2019-03-01T09:32:39.961Z,1.27
2019-03-01T09:38:39.503Z,2.60
2019-03-01T09:41:28.338Z,3.00
2019-03-01T09:44:16.030Z,2.80
2019-03-01T09:47:04.180Z,1.33
2019-03-01T09:49:51.968Z,0.77
2019-03-01T09:52:39.541Z,1.03
2019-03-01T09:55:27.420Z,1.17
2019-03-01T09:58:15.051Z,1.50
2019-03-01T10:01:09.129Z,1.67
2019-03-01T10:03:57.301Z,1.37
2019-03-01T10:06:44.850Z,1.23
2019-03-01T10:09:32.724Z,1.13
2019-03-01T10:12:20.525Z,1.60
2019-03-01T10:15:11.133Z,6.10
2019-03-01T10:17:59.129Z,1.20
2019-03-01T10:20:46.953Z,2.93
2019-03-01T10:23:34.737Z,3.07
2019-03-01T10:26:22.805Z,3.27
2019-03-01T10:29:10.607Z,3.50
2019-03-01T10:31:58.359Z,4.43
2019-03-01T10:34:46.342Z,2.43
2019-03-01T10:37:33.906Z,7.40
2019-03-01T10:40:23.040Z,2.10
2019-03-01T10:43:10.635Z,2.50
2019-03-01T10:45:58.207Z,2.70
2019-03-01T10:48:45.819Z,2.10
2019-03-01T10:51:33.788Z,1.60
2019-03-01T10:54:21.458Z,43.23
2019-03-01T10:57:09.134Z,1.67
2019-03-01T10:59:57.015Z,2.43
2019-03-01T11:02:44.799Z,2.83
2019-03-01T11:05:32.460Z,2.93
2019-03-01T11:08:20.188Z,4.83
2019-03-01T11:11:08.036Z,2.87
2019-03-01T11:13:55.934Z,4.67
2019-03-01T11:16:43.746Z,3.37
2019-03-01T11:19:31.622Z,3.23
2019-03-01T11:22:19.427Z,3.60
2019-03-01T11:25:13.434Z,4.20
2019-03-01T11:28:01.492Z,3.97
2019-03-01T11:30:49.192Z,5.13
2019-03-01T11:33:37.133Z,2.97
2019-03-01T11:36:24.778Z,4.90
2019-03-01T11:39:13.931Z,4.93
2019-03-01T11:42:01.789Z,4.70
2019-03-01T11:44:49.606Z,5.33
2019-03-01T11:47:37.513Z,4.33
2019-03-01T11:50:25.585Z,4.40
2019-03-01T11:53:13.276Z,4.80
2019-03-01T11:56:01.268Z,4.30
2019-03-01T11:58:49.092Z,5.00
2019-03-01T12:01:37.043Z,3.93
2019-03-01T12:04:24.784Z,5.23
2019-03-01T12:07:12.394Z,3.80
2019-03-01T12:10:00.231Z,10.57
2019-03-01T12:12:48.247Z,3.87
2019-03-01T12:15:35.902Z,5.70
2019-03-01T12:18:23.869Z,4.00
2019-03-01T12:21:11.784Z,5.67
2019-03-01T12:23:59.544Z,4.30
2019-03-01T12:26:47.298Z,3.30
2019-03-01T12:29:35.347Z,4.13
2019-03-01T12:32:23.166Z,4.10
2019-03-01T12:35:11.183Z,4.67
2019-03-01T12:37:59.070Z,15.10
2019-03-01T12:40:47.004Z,4.23
2019-03-01T12:43:34.910Z,3.63
2019-03-01T12:46:22.489Z,4.40
2019-03-01T12:49:10.324Z,5.17
2019-03-01T12:51:58.373Z,4.57
2019-03-01T12:54:46.400Z,4.20
2019-03-01T12:57:34.307Z,5.17
2019-03-01T13:00:32.974Z,5.50
2019-03-01T13:03:20.736Z,7.33
2019-03-01T13:06:08.469Z,4.67
2019-03-01T13:08:56.364Z,4.00
2019-03-01T13:11:44.273Z,9.20
2019-03-01T13:14:32.346Z,4.77
2019-03-01T13:17:20.292Z,6.13
2019-03-01T13:20:13.907Z,4.30
2019-03-01T13:23:04.933Z,4.10
2019-03-01T13:25:51.588Z,4.50
2019-03-01T13:28:39.328Z,4.40
2019-03-01T13:31:27.408Z,5.10
2019-03-01T13:34:15.356Z,4.70
2019-03-01T13:37:02.998Z,4.37
2019-03-01T13:39:50.821Z,4.07
2019-03-01T13:42:38.516Z,4.30
2019-03-01T13:45:26.620Z,7.10
2019-03-01T13:48:15.736Z,6.77
2019-03-01T13:51:03.834Z,5.40
2019-03-01T13:53:52.172Z,6.93
2019-03-01T13:56:39.934Z,6.70
2019-03-01T13:59:27.860Z,4.80
2019-03-01T14:02:15.798Z,5.93
2019-03-01T14:05:05.412Z,7.40
2019-03-01T14:07:56.751Z,8.23
2019-03-01T14:10:43.258Z,7.23
2019-03-01T14:13:31.168Z,10.67
2019-03-01T14:16:20.385Z,7.47
2019-03-01T14:19:08.821Z,7.97
2019-03-01T14:21:56.466Z,11.43
2019-03-01T14:24:44.234Z,9.53
2019-03-01T14:27:32.212Z,14.27
2019-03-01T14:30:30.133Z,11.03
2019-03-01T14:33:17.166Z,11.47
2019-03-01T14:36:05.161Z,9.57
2019-03-01T14:38:52.965Z,10.77
2019-03-01T14:41:40.781Z,9.20
2019-03-01T14:44:30.667Z,9.13
2019-03-01T14:47:18.330Z,15.97
2019-03-01T14:50:12.076Z,10.57
2019-03-01T14:52:59.557Z,9.80
2019-03-01T14:55:55.578Z,9.80
2019-03-01T14:58:49.096Z,10.67
2019-03-01T15:01:45.973Z,10.57
2019-03-01T15:04:33.910Z,11.73
2019-03-01T15:07:22.832Z,13.37
2019-03-01T15:10:13.004Z,11.87
2019-03-01T15:13:00.950Z,10.13
2019-03-01T15:15:48.676Z,12.57
2019-03-01T15:18:37.904Z,13.27
2019-03-01T15:21:25.616Z,14.10
2019-03-01T15:24:13.444Z,10.87
2019-03-01T15:27:04.091Z,13.17
2019-03-01T15:29:50.965Z,12.90
2019-03-01T15:32:38.932Z,11.10
2019-03-01T15:35:28.751Z,14.30
2019-03-01T15:38:16.365Z,13.17
2019-03-01T15:41:06.393Z,13.43
2019-03-01T15:43:54.109Z,15.33
2019-03-01T15:46:41.723Z,40.37
2019-03-01T15:49:29.777Z,20.30
2019-03-01T15:52:18.476Z,19.20
2019-03-01T15:55:12.009Z,23.53
2019-03-01T15:57:58.701Z,19.07
2019-03-01T16:00:46.605Z,21.83
2019-03-01T16:03:34.552Z,18.80
2019-03-01T16:06:22.468Z,24.00
2019-03-01T16:09:13.345Z,31.00
2019-03-01T16:12:01.192Z,64.70
2019-03-01T16:14:51.964Z,33.33
2019-03-01T16:17:39.620Z,19.43
2019-03-01T16:20:28.479Z,25.80
2019-03-01T16:23:16.926Z,21.20
2019-03-01T16:26:04.608Z,19.10
2019-03-01T16:28:51.728Z,19.93
2019-03-01T16:31:39.487Z,20.73
2019-03-01T16:34:27.321Z,19.60
2019-03-01T16:37:15.397Z,18.97
2019-03-01T16:40:03.384Z,18.33
2019-03-01T16:42:54.414Z,21.30
2019-03-01T16:45:41.469Z,21.50
2019-03-01T16:48:29.314Z,21.57
2019-03-01T16:51:18.661Z,23.80
2019-03-01T16:54:06.527Z,22.80
2019-03-01T16:56:54.504Z,22.57
2019-03-01T16:59:42.817Z,23.50
2019-03-01T17:02:31.519Z,21.83
2019-03-01T17:05:19.580Z,22.10
2019-03-01T17:08:07.416Z,23.17
2019-03-01T17:10:55.357Z,22.57
2019-03-01T17:13:43.165Z,23.17
2019-03-01T17:16:31.116Z,24.63
2019-03-01T17:19:20.508Z,23.50
2019-03-01T17:22:08.524Z,26.27
2019-03-01T17:24:56.156Z,24.30
2019-03-01T17:27:44.944Z,25.20
2019-03-01T17:30:32.682Z,26.30
2019-03-01T17:33:20.539Z,26.53
2019-03-01T17:36:08.159Z,26.57
2019-03-01T17:38:55.970Z,26.07
2019-03-01T17:41:45.597Z,31.40
2019-03-01T17:44:33.317Z,29.73
2019-03-01T17:47:21.096Z,32.60
2019-03-01T17:50:09.477Z,31.53
2019-03-01T17:52:57.416Z,29.83
2019-03-01T17:55:45.432Z,33.73
2019-03-01T17:58:33.314Z,36.70
2019-03-01T18:01:21.184Z,37.07
2019-03-01T18:04:09.008Z,40.57
2019-03-01T18:06:56.833Z,33.57
2019-03-01T18:09:44.420Z,41.83
2019-03-01T18:12:32.432Z,39.23
2019-03-01T18:15:20.233Z,42.73
2019-03-01T18:18:08.980Z,38.23
2019-03-01T18:20:57.417Z,39.20
2019-03-01T18:23:45.313Z,39.33
2019-03-01T18:26:36.385Z,46.53
2019-03-01T18:29:23.320Z,41.17
2019-03-01T18:32:11.285Z,40.13
2019-03-01T18:34:59.212Z,41.47
2019-03-01T18:37:47.445Z,46.77
2019-03-01T18:40:35.558Z,42.00
2019-03-01T18:43:23.346Z,39.07
2019-03-01T18:46:11.273Z,42.43
2019-03-01T18:49:06.290Z,40.13
2019-03-01T18:51:54.138Z,48.43
2019-03-01T18:54:43.027Z,45.80
2019-03-01T18:57:30.984Z,48.73
2019-03-01T19:00:35.784Z,44.63
2019-03-01T19:03:23.188Z,49.53
2019-03-01T19:06:34.956Z,48.90
2019-03-01T19:09:52.250Z,49.00
2019-03-01T19:12:48.509Z,47.40
2019-03-01T19:15:41.134Z,52.87
2019-03-01T19:18:29.442Z,49.03
2019-03-01T19:21:18.395Z,49.07
2019-03-01T19:24:14.742Z,51.13
2019-03-01T19:26:59.741Z,49.57
2019-03-01T19:29:56.434Z,53.83
2019-03-01T19:32:44.717Z,58.67
2019-03-01T19:39:09.147Z,56.10
2019-03-01T19:42:09.327Z,59.27
2019-03-01T19:45:06.027Z,56.17
2019-03-01T19:51:18.750Z,56.80
2019-03-01T19:54:10.178Z,58.23
2019-03-01T19:57:01.588Z,58.47
2019-03-01T19:59:52.686Z,56.53
2019-03-01T20:02:43.427Z,56.97
2019-03-01T20:05:40.039Z,51.40
2019-03-01T20:08:30.897Z,55.80
2019-03-01T20:11:23.387Z,52.70
2019-03-01T20:14:16.938Z,49.30
2019-03-01T20:17:07.032Z,51.70
2019-03-01T20:19:58.841Z,50.47
2019-03-01T20:22:50.447Z,48.70
2019-03-01T20:25:38.865Z,46.83
2019-03-01T20:28:28.840Z,42.83
2019-03-01T20:31:24.352Z,50.13
2019-03-01T20:34:17.769Z,48.50
2019-03-01T20:37:11.223Z,46.03
2019-03-01T20:40:03.592Z,46.20
2019-03-01T20:43:01.239Z,40.47
2019-03-01T20:45:47.807Z,43.53
2019-03-01T20:48:38.243Z,45.03
2019-03-01T20:51:28.609Z,48.77
2019-03-01T20:54:21.808Z,43.10
2019-03-01T20:57:16.266Z,46.87
2019-03-01T21:04:53.265Z,40.23
2019-03-01T21:07:36.081Z,45.23
2019-03-01T21:10:31.660Z,46.00
2019-03-01T21:13:19.642Z,43.03
2019-03-01T21:16:07.174Z,47.80
2019-03-01T21:18:54.964Z,44.90
2019-03-01T21:21:42.536Z,43.53
2019-03-01T21:24:32.027Z,43.83
2019-03-01T21:27:22.689Z,41.37
2019-03-01T21:30:13.308Z,44.93
2019-03-01T21:33:13.379Z,46.00
2019-03-01T21:36:04.048Z,41.93
2019-03-01T22:06:43.553Z,47.27
2019-03-01T22:09:30.936Z,47.57
2019-03-01T22:12:20.845Z,45.97
